Time;durP1;ratioP1;P1;durP2;ratioP2;P2;SDS_P1;SDS_P2;PMS_P1;PMS_P2;Temp;Humidity;BMP_temperature;BMP_pressure;BME280_temperature;BME280_humidity;BME280_pressure;Samples;Min_cycle;Max_cycle;Signal;HPM_P1;HPM_P2
2022/04/28 00:01:50;;;;;;;11.63;6.33;;;;;;;5.97;76.61;102921.41;5017070;28;20188;-78
2022/04/28 00:04:15;;;;;;;13.97;6.37;;;;;;;6.01;75.98;102923.38;5035189;28;20675;-79
2022/04/28 00:06:40;;;;;;;10.73;6.00;;;;;;;6.02;75.80;102925.16;5034690;28;20182;-80
2022/04/28 00:09:06;;;;;;;13.00;6.33;;;;;;;5.88;76.48;102929.25;5001034;28;20210;-80
2022/04/28 00:11:32;;;;;;;12.13;6.17;;;;;;;5.88;76.14;102923.28;5017354;28;20190;-79
2022/04/28 00:14:00;;;;;;;15.17;6.27;;;;;;;5.87;76.05;102924.97;5011196;28;20191;-79
2022/04/28 00:16:26;;;;;;;11.17;5.80;;;;;;;5.75;76.45;102929.13;4994378;28;20187;-77
2022/04/28 00:18:51;;;;;;;14.70;6.30;;;;;;;5.74;76.25;102929.00;5013842;28;20628;-79
2022/04/28 00:21:17;;;;;;;12.63;6.20;;;;;;;5.56;76.78;102928.56;4996297;28;20218;-77
2022/04/28 00:23:42;;;;;;;13.87;6.20;;;;;;;5.65;76.36;102928.34;4996089;28;20195;-81
2022/04/28 00:26:07;;;;;;;12.80;6.30;;;;;;;5.61;76.20;102922.16;4980077;28;20858;-78
2022/04/28 00:28:33;;;;;;;9.27;5.83;;;;;;;5.57;76.03;102927.78;5015344;28;20186;-81
2022/04/28 00:30:58;;;;;;;10.97;6.00;;;;;;;5.59;76.22;102923.72;5015060;28;20195;-77
2022/04/28 00:33:23;;;;;;;12.03;6.00;;;;;;;5.51;77.26;102927.34;4980480;28;20194;-79
2022/04/28 00:35:49;;;;;;;12.00;6.33;;;;;;;5.47;77.12;102927.91;4997260;28;20206;-77
2022/04/28 00:38:14;;;;;;;10.27;6.20;;;;;;;5.39;77.41;102926.44;4981245;28;20215;-78
2022/04/28 00:40:40;;;;;;;9.60;5.63;;;;;;;5.34;77.59;102926.91;4996777;28;20286;-79
2022/04/28 00:43:20;;;;;;;11.53;6.53;;;;;;;5.33;76.62;102928.53;4997363;28;20711;-78
2022/04/28 00:45:47;;;;;;;11.27;6.30;;;;;;;5.31;77.83;102932.66;4996703;28;20186;-80
2022/04/28 00:51:02;;;;;;;10.70;6.50;;;;;;;5.21;77.84;102930.16;5016163;28;20202;-80
2022/04/28 00:53:34;;;;;;;10.20;6.50;;;;;;;5.23;77.37;102928.66;5000607;28;20190;-78
2022/04/28 00:56:02;;;;;;;11.23;6.27;;;;;;;5.17;77.57;102932.38;5000321;28;20182;-77
2022/04/28 00:58:27;;;;;;;12.40;6.43;;;;;;;5.15;77.78;102934.81;5000955;28;20308;-80
2022/04/28 01:00:54;;;;;;;12.63;6.37;;;;;;;5.15;77.93;102928.88;5001263;28;20274;-77
2022/04/28 01:03:23;;;;;;;13.67;6.47;;;;;;;5.06;77.65;102934.13;4999881;28;20640;-79
2022/04/28 01:05:49;;;;;;;10.20;6.33;;;;;;;5.05;78.18;102931.47;4992040;28;20235;-79
2022/04/28 01:08:15;;;;;;;11.50;6.33;;;;;;;5.04;78.37;102933.13;4995634;28;20213;-79
2022/04/28 01:10:40;;;;;;;11.40;6.63;;;;;;;5.05;78.84;102944.16;4995099;28;20210;-77
2022/04/28 01:13:05;;;;;;;12.37;6.33;;;;;;;5.00;78.78;102945.47;4995104;28;20195;-78
2022/04/28 01:15:49;;;;;;;10.83;7.10;;;;;;;4.94;78.88;102948.44;5004135;28;20195;-79
2022/04/28 01:18:16;;;;;;;14.40;7.87;;;;;;;4.93;79.92;102950.88;5012113;28;20215;-80
2022/04/28 01:20:42;;;;;;;14.83;7.80;;;;;;;4.93;79.41;102950.88;5020496;22;20262;-71
2022/04/28 01:23:09;;;;;;;10.03;6.57;;;;;;;4.88;79.91;102939.47;4995509;28;20631;-71
2022/04/28 01:25:34;;;;;;;11.70;7.70;;;;;;;4.75;79.91;102947.78;4973605;28;20187;-71
2022/04/28 01:28:00;;;;;;;14.17;7.97;;;;;;;4.79;79.51;102939.66;4974115;28;20524;-71
2022/04/28 01:30:26;;;;;;;13.03;7.13;;;;;;;4.73;79.62;102940.84;4973587;28;20621;-71
2022/04/28 01:32:59;;;;;;;12.43;7.60;;;;;;;4.64;80.54;102941.03;4974010;28;20204;-72
2022/04/28 01:35:25;;;;;;;12.00;7.40;;;;;;;4.57;80.68;102937.91;4991439;28;20837;-71
2022/04/28 01:37:52;;;;;;;14.50;8.03;;;;;;;4.56;80.14;102943.75;4991190;28;20262;-71
2022/04/28 01:40:19;;;;;;;12.10;6.90;;;;;;;4.50;79.79;102944.16;4973694;28;20278;-71
2022/04/28 01:42:45;;;;;;;12.93;7.50;;;;;;;4.52;80.49;102944.28;4973395;28;20258;-72
2022/04/28 01:45:12;;;;;;;11.60;7.20;;;;;;;4.37;80.19;102943.97;4973761;28;20187;-71
2022/04/28 01:47:57;;;;;;;12.27;6.80;;;;;;;4.42;79.79;102941.81;4990755;28;20196;-71
2022/04/28 01:54:57;;;;;;;15.10;7.97;;;;;;;4.32;79.56;102942.75;4973633;28;20198;-71
2022/04/28 01:56:31;;;;;;;12.40;6.97;;;;;;;4.19;80.47;102951.81;4978691;28;20766;-71
2022/04/28 01:59:14;;;;;;;13.70;7.50;;;;;;;4.24;79.65;102950.53;4979015;28;20271;-71
2022/04/28 02:01:55;;;;;;;13.53;7.50;;;;;;;4.19;79.65;102955.22;4979319;28;20264;-71
2022/04/28 02:04:20;;;;;;;12.00;6.93;;;;;;;4.21;79.56;102948.63;4993238;28;20187;-71
2022/04/28 02:06:49;;;;;;;15.17;7.43;;;;;;;4.18;80.15;102953.44;4996241;28;20263;-71
2022/04/28 02:09:14;;;;;;;12.57;7.80;;;;;;;4.17;81.12;102951.69;4993223;28;20199;-71
2022/04/28 02:11:40;;;;;;;12.87;7.50;;;;;;;4.06;81.29;102951.59;4992739;28;20302;-71
2022/04/28 02:14:25;;;;;;;14.53;7.57;;;;;;;4.07;81.53;102948.31;4991522;28;20210;-71
2022/04/28 02:17:10;;;;;;;10.67;6.90;;;;;;;3.98;82.00;102942.50;4972997;28;20219;-71
2022/04/28 02:19:35;;;;;;;12.73;7.07;;;;;;;4.00;80.64;102954.53;4972950;28;20203;-71
2022/04/28 02:22:02;;;;;;;12.43;7.03;;;;;;;3.99;80.95;102955.31;4990236;28;20211;-71
2022/04/28 02:24:27;;;;;;;11.63;7.50;;;;;;;3.95;82.06;102942.28;4973134;28;20668;-71
2022/04/28 02:26:53;;;;;;;15.60;7.77;;;;;;;3.96;82.75;102941.53;4988880;28;20190;-71
2022/04/28 02:29:18;;;;;;;13.97;7.90;;;;;;;3.93;82.55;102938.72;4990726;28;20195;-71
2022/04/28 02:31:44;;;;;;;14.93;7.77;;;;;;;3.92;83.25;102937.84;4972381;28;20216;-71
2022/04/28 02:34:11;;;;;;;11.77;7.80;;;;;;;3.84;83.54;102940.53;4973199;28;20266;-71
2022/04/28 02:36:43;;;;;;;14.67;7.77;;;;;;;3.83;83.28;102944.75;4972719;28;20195;-71
2022/04/28 02:39:13;;;;;;;14.07;8.50;;;;;;;3.84;83.96;102943.06;4972662;28;20191;-71
2022/04/28 02:41:38;;;;;;;11.80;7.63;;;;;;;3.83;83.39;102953.97;4990198;28;20287;-71
2022/04/28 02:44:04;;;;;;;13.40;7.67;;;;;;;3.74;83.44;102949.06;4972426;28;20326;-71
2022/04/28 02:46:31;;;;;;;12.57;7.20;;;;;;;3.77;82.95;102943.34;4972716;28;20648;-71
2022/04/28 02:49:07;;;;;;;13.83;7.63;;;;;;;3.77;83.03;102939.16;4987616;28;20202;-71
2022/04/28 02:51:37;;;;;;;15.63;8.40;;;;;;;3.72;82.50;102942.97;4972503;28;20235;-71
2022/04/28 02:54:03;;;;;;;12.70;7.63;;;;;;;3.72;82.17;102939.56;4972298;28;20644;-71
2022/04/28 02:56:29;;;;;;;12.40;8.10;;;;;;;3.55;82.02;102945.78;4987857;28;20179;-71
2022/04/28 02:58:55;;;;;;;12.80;7.67;;;;;;;3.62;81.30;102940.47;4972741;28;20582;-71
2022/04/28 03:01:22;;;;;;;15.70;8.43;;;;;;;3.52;81.48;102932.00;4971771;28;20211;-71
2022/04/28 03:03:48;;;;;;;11.73;7.83;;;;;;;3.54;81.31;102948.22;4972900;28;20187;-71
2022/04/28 03:11:44;;;;;;;15.20;8.20;;;;;;;3.39;81.58;102942.78;4991407;28;20924;-71
2022/04/28 03:14:12;;;;;;;17.77;8.77;;;;;;;3.43;82.83;102941.38;4986530;28;20196;-71
2022/04/28 03:16:39;;;;;;;18.53;9.63;;;;;;;3.36;82.84;102944.19;5001904;28;20180;-71
2022/04/28 03:19:06;;;;;;;19.00;8.33;;;;;;;3.32;83.95;102944.69;4988531;28;20220;-71
2022/04/28 03:21:32;;;;;;;13.97;9.00;;;;;;;3.17;84.92;102939.25;4985111;28;20266;-71
2022/04/28 03:24:00;;;;;;;15.23;8.63;;;;;;;3.23;84.66;102937.25;4972390;28;20195;-72
2022/04/28 03:26:28;;;;;;;13.67;9.43;;;;;;;3.24;84.93;102944.06;4990018;28;20179;-71
2022/04/28 03:28:56;;;;;;;15.90;8.50;;;;;;;3.23;84.38;102942.31;4971960;28;20318;-71
2022/04/28 03:31:22;;;;;;;14.73;8.57;;;;;;;3.19;83.44;102942.81;4972216;28;20302;-71
2022/04/28 03:34:08;;;;;;;14.53;9.10;;;;;;;3.09;83.47;102941.94;4971914;28;20246;-70
2022/04/28 03:36:52;;;;;;;13.23;8.37;;;;;;;3.12;83.22;102948.13;4972392;28;20199;-71
2022/04/28 03:39:27;;;;;;;13.37;8.83;;;;;;;3.10;82.64;102941.16;4957146;28;20199;-71
2022/04/28 03:41:53;;;;;;;14.10;9.17;;;;;;;3.07;83.94;102946.84;4989578;28;20347;-71
2022/04/28 03:44:18;;;;;;;13.63;8.80;;;;;;;3.07;85.14;102949.38;4955786;28;20188;-71
2022/04/28 03:46:43;;;;;;;16.47;10.10;;;;;;;3.00;84.67;102947.13;4972356;28;20192;-71
2022/04/28 03:49:09;;;;;;;17.57;10.03;;;;;;;3.05;85.69;102950.03;4972220;28;20198;-71
2022/04/28 03:51:35;;;;;;;22.53;9.90;;;;;;;3.07;84.41;102948.47;4955772;28;20242;-71
2022/04/28 03:54:00;;;;;;;14.17;10.03;;;;;;;3.01;84.78;102950.53;4972679;28;20326;-71
2022/04/28 03:56:32;;;;;;;13.83;9.20;;;;;;;2.98;84.82;102945.19;4972160;28;20206;-71
2022/04/28 03:59:02;;;;;;;14.30;9.80;;;;;;;2.93;83.45;102949.00;4972476;28;20216;-71
2022/04/28 04:01:33;;;;;;;18.20;10.07;;;;;;;2.95;84.35;102950.88;4971726;28;20199;-71
2022/04/28 04:04:08;;;;;;;16.33;10.17;;;;;;;2.98;84.12;102945.19;4972223;28;20187;-71
2022/04/28 04:06:38;;;;;;;18.77;9.80;;;;;;;2.94;83.93;102954.19;4972001;28;20199;-71
2022/04/28 04:09:36;;;;;;;19.97;10.40;;;;;;;2.97;84.19;102949.38;4968141;28;20537;-71
2022/04/28 04:12:05;;;;;;;14.67;10.13;;;;;;;2.93;84.38;102960.00;4991853;28;20211;-71
2022/04/28 04:14:49;;;;;;;13.90;9.73;;;;;;;2.87;84.47;102953.53;4993272;28;20723;-71
2022/04/28 04:17:15;;;;;;;15.27;10.20;;;;;;;2.92;84.84;102955.72;4975452;28;20211;-71
2022/04/28 04:19:41;;;;;;;17.27;10.87;;;;;;;2.95;84.01;102966.06;4991607;28;20183;-71
2022/04/28 04:22:06;;;;;;;18.13;11.43;;;;;;;2.96;85.17;102974.56;4975235;28;20254;-71
2022/04/28 04:24:32;;;;;;;19.40;12.00;;;;;;;3.01;85.06;102960.63;4991148;28;20184;-71
2022/04/28 04:26:58;;;;;;;20.80;12.13;;;;;;;3.07;85.33;102971.25;4975268;28;20610;-71
2022/04/28 04:29:46;;;;;;;18.50;12.10;;;;;;;3.10;85.82;102963.94;4980881;28;20540;-71
2022/04/28 04:32:30;;;;;;;21.90;12.60;;;;;;;3.20;84.72;102967.34;5012445;28;20222;-71
2022/04/28 04:35:02;;;;;;;22.87;12.33;;;;;;;3.22;85.27;102972.56;4994262;28;20187;-72
2022/04/28 04:37:38;;;;;;;22.03;12.50;;;;;;;3.28;85.21;102975.56;4994440;28;20225;-72
2022/04/28 04:40:04;;;;;;;20.43;12.90;;;;;;;3.30;85.76;102977.47;4993895;28;20191;-72
2022/04/28 04:42:29;;;;;;;22.33;13.67;;;;;;;3.39;86.79;102977.34;4994422;28;20264;-71
2022/04/28 04:44:55;;;;;;;20.47;13.13;;;;;;;3.47;86.50;102982.28;4994468;28;20273;-72
2022/04/28 04:47:24;;;;;;;25.20;15.03;;;;;;;3.66;87.36;102985.53;4977489;28;20711;-71
2022/04/28 04:50:03;;;;;;;28.37;15.33;;;;;;;3.79;88.46;102980.72;4994099;28;20289;-71
2022/04/28 04:52:41;;;;;;;28.10;14.57;;;;;;;3.83;88.75;102990.34;4979280;28;20210;-72
2022/04/28 04:55:12;;;;;;;29.03;15.60;;;;;;;3.86;88.73;102989.69;4978958;28;20183;-72
2022/04/28 04:57:42;;;;;;;24.40;14.57;;;;;;;3.91;88.13;102994.34;4993642;28;20229;-71
2022/04/28 05:00:08;;;;;;;26.60;14.47;;;;;;;4.02;88.33;102988.50;4994031;28;20672;-71
2022/04/28 05:02:52;;;;;;;23.23;14.70;;;;;;;4.12;87.63;102997.72;4993273;28;20210;-72
2022/04/28 05:05:38;;;;;;;25.97;14.63;;;;;;;4.26;88.05;102998.03;4980684;28;20226;-71
2022/04/28 05:08:16;;;;;;;27.90;15.40;;;;;;;4.37;88.08;102997.22;4993535;28;20667;-72
2022/04/28 05:10:54;;;;;;;29.27;15.53;;;;;;;4.47;88.62;103003.91;4993850;28;20183;-72
2022/04/28 05:13:19;;;;;;;24.47;14.17;;;;;;;4.61;88.15;103001.66;4972355;28;20207;-72
2022/04/28 05:15:53;;;;;;;24.53;14.60;;;;;;;4.75;88.47;103011.22;4978680;28;20227;-73
2022/04/28 05:18:28;;;;;;;24.07;15.80;;;;;;;4.91;88.24;103000.59;4974175;28;20227;-73
2022/04/28 05:21:03;;;;;;;27.67;15.60;;;;;;;5.08;87.46;103007.84;4973300;28;20231;-72
2022/04/28 05:23:47;;;;;;;27.40;15.13;;;;;;;5.24;86.81;103005.69;4992174;28;20257;-72
2022/04/28 05:26:31;;;;;;;27.43;14.37;;;;;;;5.42;86.75;103002.00;4991812;28;20241;-72
2022/04/28 05:29:23;;;;;;;30.27;15.30;;;;;;;5.58;86.19;103005.78;4979153;28;20188;-72
2022/04/28 05:32:05;;;;;;;27.90;14.53;;;;;;;5.75;85.49;103013.00;4973749;28;20207;-72
2022/04/28 05:34:40;;;;;;;23.10;13.90;;;;;;;5.91;84.83;103015.94;4974243;28;20187;-72
2022/04/28 05:37:26;;;;;;;20.70;14.40;;;;;;;6.07;84.45;103015.34;4994989;28;20615;-73
2022/04/28 05:39:52;;;;;;;24.70;15.17;;;;;;;6.22;84.16;103016.47;5011018;28;20198;-72
2022/04/28 05:42:18;;;;;;;21.90;14.53;;;;;;;6.34;83.04;103017.31;4992873;28;20672;-72
2022/04/28 05:47:27;;;;;;;19.57;14.27;;;;;;;6.64;81.70;103005.09;4993160;28;20174;-72
2022/04/28 05:49:53;;;;;;;22.33;13.93;;;;;;;6.77;80.45;103009.41;4993316;28;20183;-72
2022/04/28 05:52:20;;;;;;;22.47;13.20;;;;;;;6.87;80.76;103011.78;4992686;28;20202;-72
2022/04/28 05:54:48;;;;;;;21.97;14.47;;;;;;;6.94;80.78;103011.41;4992371;28;20220;-72
2022/04/28 05:57:13;;;;;;;23.87;13.80;;;;;;;7.11;80.41;103013.47;4976843;28;20262;-73
2022/04/28 05:59:39;;;;;;;25.97;13.90;;;;;;;7.30;80.69;103007.16;4976575;28;20586;-71
2022/04/28 06:02:23;;;;;;;23.43;13.57;;;;;;;7.50;78.38;103006.81;4995710;28;20233;-73
2022/04/28 06:04:49;;;;;;;22.57;14.43;;;;;;;7.59;78.08;103012.53;4992418;28;20187;-71
2022/04/28 06:07:16;;;;;;;22.37;13.17;;;;;;;7.77;77.91;103007.75;4992969;28;20264;-72
2022/04/28 06:09:46;;;;;;;23.80;13.47;;;;;;;7.90;76.86;103007.75;4976944;28;20225;-72
2022/04/28 06:12:14;;;;;;;21.20;13.20;;;;;;;8.06;76.49;103013.06;4980677;28;20708;-73
2022/04/28 06:15:03;;;;;;;24.10;13.57;;;;;;;8.26;75.49;103010.16;4960119;28;20191;-72
2022/04/28 06:17:43;;;;;;;21.87;13.47;;;;;;;8.42;76.16;103015.41;4978996;28;20215;-72
2022/04/28 06:20:09;;;;;;;22.87;13.20;;;;;;;8.46;75.36;103012.28;4988804;28;20226;-72
2022/04/28 06:22:54;;;;;;;20.83;13.10;;;;;;;8.64;74.27;103011.75;4971337;28;20227;-72
2022/04/28 06:25:19;;;;;;;26.27;13.70;;;;;;;8.80;73.70;103021.25;4954036;28;20196;-72
2022/04/28 06:27:46;;;;;;;19.10;11.87;;;;;;;9.01;72.65;103017.44;4969514;28;20176;-72
2022/04/28 06:30:13;;;;;;;24.17;13.40;;;;;;;9.16;72.73;103015.78;4979610;28;20235;-72
2022/04/28 06:32:52;;;;;;;19.13;12.47;;;;;;;9.40;71.02;103015.56;5067905;28;20953;-71
2022/04/28 06:35:22;;;;;;;20.30;12.70;;;;;;;9.45;71.85;103019.28;5084424;28;20232;-71
2022/04/28 06:37:48;;;;;;;19.50;12.23;;;;;;;9.67;70.60;103017.19;5068747;28;20185;-71
2022/04/28 06:40:14;;;;;;;23.17;13.37;;;;;;;9.79;71.24;103012.78;5085734;28;20267;-71
2022/04/28 06:42:43;;;;;;;19.23;12.47;;;;;;;9.66;69.50;103022.19;5068582;28;20203;-71
2022/04/28 06:45:24;;;;;;;20.90;12.00;;;;;;;9.90;69.52;103014.25;5087407;28;20622;-71
2022/04/28 06:48:08;;;;;;;20.20;12.00;;;;;;;10.20;68.84;103018.59;5085424;28;20195;-71
2022/04/28 06:50:39;;;;;;;20.20;12.13;;;;;;;10.28;68.53;103021.56;5086892;28;20291;-72
2022/04/28 06:53:23;;;;;;;22.80;12.87;;;;;;;10.35;68.35;103021.09;5086788;28;20607;-71
2022/04/28 06:55:55;;;;;;;17.40;11.83;;;;;;;10.49;68.32;103021.06;5085212;28;20196;-71
2022/04/28 06:58:21;;;;;;;19.27;12.17;;;;;;;10.80;66.81;103018.47;5085387;28;20271;-72
2022/04/28 07:00:49;;;;;;;16.40;10.90;;;;;;;10.92;65.61;103017.44;5084410;28;20184;-72
2022/04/28 07:03:16;;;;;;;21.73;11.43;;;;;;;10.98;65.07;103011.75;5062483;28;20194;-72
2022/04/28 07:05:42;;;;;;;19.23;11.30;;;;;;;11.18;65.00;103019.69;5028148;28;20186;-72
2022/04/28 07:08:08;;;;;;;18.83;10.83;;;;;;;11.41;64.65;103014.03;5044980;28;20539;-71
2022/04/28 07:10:38;;;;;;;15.57;8.97;;;;;;;11.45;63.14;103013.41;5054935;28;20177;-72
2022/04/28 07:13:04;;;;;;;13.30;8.17;;;;;;;11.72;61.84;103017.38;5064869;28;20189;-72
2022/04/28 07:15:48;;;;;;;9.07;7.43;;;;;;;11.90;60.75;103015.69;5066362;28;20612;-73
2022/04/28 07:18:32;;;;;;;15.07;8.93;;;;;;;12.03;60.85;103018.06;5066353;28;20243;-73
2022/04/28 07:21:02;;;;;;;13.40;8.60;;;;;;;11.86;61.50;103025.75;5046938;28;20695;-71
2022/04/28 07:23:28;;;;;;;14.37;7.20;;;;;;;12.29;60.90;103020.19;5028883;28;20240;-71
2022/04/28 07:25:53;;;;;;;12.33;7.13;;;;;;;12.43;59.25;103024.28;5028950;28;20186;-71
2022/04/28 07:28:19;;;;;;;12.27;9.03;;;;;;;12.78;58.25;103029.38;5044314;28;20182;-71
2022/04/28 07:31:00;;;;;;;15.40;7.37;;;;;;;12.77;58.52;103031.88;5054837;28;20697;-71
2022/04/28 07:33:44;;;;;;;11.80;6.20;;;;;;;13.13;58.33;103023.28;5085572;28;20203;-71
2022/04/28 07:36:28;;;;;;;11.67;5.93;;;;;;;13.28;55.45;103034.22;5074685;28;20213;-72
2022/04/28 07:39:31;;;;;;;13.43;5.37;;;;;;;13.32;54.78;103038.69;5045186;28;20202;-71
2022/04/28 07:42:17;;;;;;;10.73;5.90;;;;;;;13.51;53.25;103041.25;5041857;28;20207;-71
2022/04/28 07:44:46;;;;;;;11.43;5.40;;;;;;;13.84;53.42;103034.03;5030497;28;20183;-71
2022/04/28 07:47:11;;;;;;;11.20;5.67;;;;;;;14.08;52.36;103035.91;5031106;28;20606;-71
2022/04/28 07:49:53;;;;;;;10.27;5.30;;;;;;;14.18;51.86;103034.59;5030454;28;20171;-72
2022/04/28 07:52:19;;;;;;;10.20;5.63;;;;;;;14.15;52.04;103029.31;5032036;28;20218;-71
2022/04/28 07:54:45;;;;;;;9.97;5.63;;;;;;;14.19;50.99;103032.09;5048443;28;20216;-71
2022/04/28 07:57:13;;;;;;;16.87;5.20;;;;;;;14.42;51.44;103036.47;5050643;28;20178;-71
2022/04/28 07:59:39;;;;;;;10.73;5.43;;;;;;;14.72;49.72;103034.16;5051030;28;20682;-71
2022/04/28 08:02:11;;;;;;;10.33;4.83;;;;;;;14.76;49.33;103036.94;5050049;28;20206;-71
2022/04/28 08:04:37;;;;;;;7.57;4.60;;;;;;;15.11;48.80;103033.06;5034013;28;20600;-71
2022/04/28 08:07:03;;;;;;;9.43;5.57;;;;;;;14.94;49.84;103040.19;5050258;28;20563;-71
2022/04/28 08:09:32;;;;;;;11.03;5.63;;;;;;;14.24;50.41;103045.16;5047157;28;20206;-71
2022/04/28 08:11:58;;;;;;;12.97;5.57;;;;;;;13.89;51.13;103035.09;5047388;28;20237;-71
2022/04/28 08:14:24;;;;;;;11.27;6.10;;;;;;;14.81;49.74;103037.09;5050431;28;20973;-72
2022/04/28 08:16:51;;;;;;;11.23;6.70;;;;;;;14.84;50.45;103040.69;5050477;28;20192;-71
2022/04/28 08:19:17;;;;;;;8.90;6.03;;;;;;;14.71;49.52;103038.47;5049908;28;20177;-72
2022/04/28 08:21:48;;;;;;;13.23;6.97;;;;;;;15.20;48.50;103039.41;5050213;28;20967;-72
2022/04/28 08:24:14;;;;;;;11.27;6.23;;;;;;;14.56;49.73;103048.22;5049912;28;20189;-72
2022/04/28 08:26:43;;;;;;;11.33;6.37;;;;;;;15.25;48.80;103044.78;5050167;28;20228;-72
2022/04/28 08:29:08;;;;;;;12.23;6.70;;;;;;;15.48;47.86;103049.06;5030922;28;20293;-71
2022/04/28 08:31:43;;;;;;;15.20;6.00;;;;;;;15.11;46.65;103046.84;5048766;28;20796;-71
2022/04/28 08:34:10;;;;;;;12.40;6.77;;;;;;;15.48;46.70;103043.91;5049508;28;20658;-72
2022/04/28 08:36:35;;;;;;;11.47;7.00;;;;;;;15.48;47.00;103047.34;5051057;28;20177;-71
2022/04/28 08:39:04;;;;;;;10.27;6.63;;;;;;;15.47;46.98;103043.03;5049616;28;20182;-72
2022/04/28 08:41:33;;;;;;;12.80;7.27;;;;;;;15.60;47.38;103042.63;5047997;28;20206;-75
2022/04/28 08:44:24;;;;;;;12.43;6.30;;;;;;;16.16;46.43;103044.50;5063581;28;20181;-73
2022/04/28 08:47:11;;;;;;;12.00;6.20;;;;;;;15.76;45.91;103044.91;5028693;28;20333;-73
2022/04/28 08:49:42;;;;;;;10.33;6.33;;;;;;;15.39;46.98;103049.66;5058342;28;20180;-74
2022/04/28 08:52:25;;;;;;;11.27;6.10;;;;;;;14.99;48.39;103045.50;5048877;28;20239;-73
2022/04/28 08:54:59;;;;;;;13.80;7.03;;;;;;;15.21;48.13;103048.94;5048658;28;20214;-73
2022/04/28 08:57:25;;;;;;;12.37;6.63;;;;;;;14.83;47.79;103050.94;5048855;28;20221;-73
2022/04/28 08:59:51;;;;;;;14.03;7.13;;;;;;;15.24;48.57;103046.47;5049474;28;20291;-73
2022/04/28 09:02:29;;;;;;;13.73;6.87;;;;;;;15.22;47.19;103055.88;5049037;28;20217;-73
2022/04/28 09:05:10;;;;;;;12.30;6.70;;;;;;;15.17;47.80;103052.25;5049292;28;20190;-73
2022/04/28 09:07:59;;;;;;;11.57;6.57;;;;;;;16.44;46.62;103045.44;5050670;28;20197;-73
2022/04/28 09:10:47;;;;;;;12.53;6.10;;;;;;;16.76;45.92;103049.88;5049936;28;20198;-74
2022/04/28 09:16:08;;;;;;;13.90;7.57;;;;;;;17.13;43.95;103050.09;5049096;28;20189;-74
2022/04/28 09:18:33;;;;;;;8.83;6.30;;;;;;;17.04;45.03;103046.38;5048461;28;20284;-74
2022/04/28 09:20:59;;;;;;;10.33;6.40;;;;;;;17.03;43.48;103044.59;5033240;28;20204;-74
2022/04/28 09:23:25;;;;;;;10.27;6.50;;;;;;;16.86;43.43;103038.94;5048706;28;20206;-74
2022/04/28 09:25:52;;;;;;;11.63;7.80;;;;;;;15.62;44.69;103043.56;5048055;28;20424;-74
2022/04/28 09:28:18;;;;;;;13.77;8.13;;;;;;;15.58;46.10;103038.22;5048001;28;20186;-73
2022/04/28 09:30:49;;;;;;;11.53;8.03;;;;;;;16.92;43.79;103035.66;5048614;28;20209;-74
2022/04/28 09:33:38;;;;;;;14.07;7.30;;;;;;;17.18;43.04;103037.28;5048531;28;20724;-74
2022/04/28 09:36:24;;;;;;;11.83;6.97;;;;;;;17.47;42.26;103031.22;5038937;28;20209;-74
2022/04/28 09:44:56;;;;;;;12.67;7.20;;;;;;;16.62;43.13;103034.78;5028603;28;20186;-75
2022/04/28 09:47:23;;;;;;;11.90;7.43;;;;;;;17.06;43.55;103032.66;5029209;28;20170;-74
2022/04/28 09:49:55;;;;;;;13.00;7.30;;;;;;;17.53;42.28;103028.78;5019451;28;20231;-74
2022/04/28 09:52:26;;;;;;;13.10;7.57;;;;;;;17.24;42.30;103030.56;5030195;28;20296;-74
2022/04/28 09:55:04;;;;;;;10.73;7.17;;;;;;;17.37;41.36;103029.19;5064927;28;20276;-74
2022/04/28 09:57:47;;;;;;;15.70;7.77;;;;;;;17.27;42.17;103030.63;5068495;28;20181;-74
2022/04/28 10:00:13;;;;;;;12.13;7.30;;;;;;;17.97;41.48;103020.41;5068343;28;20185;-75
2022/04/28 10:02:54;;;;;;;9.27;6.53;;;;;;;18.42;39.92;103018.94;5069684;28;20208;-74
2022/04/28 10:05:20;;;;;;;11.27;7.30;;;;;;;17.94;41.37;103021.22;5051632;28;20185;-75
2022/04/28 10:07:55;;;;;;;12.80;7.37;;;;;;;18.09;41.59;103018.97;5067815;28;20196;-74
2022/04/28 10:10:21;;;;;;;13.30;7.80;;;;;;;18.57;40.83;103009.72;5055114;28;20573;-74
2022/04/28 10:12:48;;;;;;;11.27;7.50;;;;;;;18.99;40.76;103015.84;5047665;28;20221;-74
2022/04/28 10:15:39;;;;;;;11.67;8.00;;;;;;;19.57;39.27;103013.50;5048258;28;20186;-74
2022/04/28 10:18:10;;;;;;;12.73;7.80;;;;;;;19.55;38.97;103012.59;5048004;28;20275;-73
2022/04/28 10:20:40;;;;;;;13.53;7.20;;;;;;;19.27;39.17;103010.34;5047682;28;20295;-73
2022/04/28 10:23:09;;;;;;;13.80;7.77;;;;;;;19.66;39.25;103013.66;5048074;28;20881;-72
2022/04/28 10:34:32;;;;;;;11.93;8.23;;;;;;;18.57;39.10;103021.84;5029635;28;20305;-73
2022/04/28 10:36:59;;;;;;;13.67;7.20;;;;;;;19.04;39.55;103010.72;5028731;28;20269;-73
2022/04/28 10:39:45;;;;;;;12.37;7.13;;;;;;;19.41;39.78;103013.19;5029342;28;20219;-73
2022/04/28 10:42:25;;;;;;;12.67;8.07;;;;;;;18.83;40.47;103013.75;5036069;28;20210;-74
2022/04/28 10:44:54;;;;;;;13.83;8.23;;;;;;;18.49;40.41;103020.78;5049300;28;20204;-74
2022/04/28 10:47:34;;;;;;;13.87;7.77;;;;;;;18.73;40.22;103018.72;5048687;28;20198;-74
2022/04/28 10:50:00;;;;;;;14.07;7.47;;;;;;;18.96;39.87;103013.16;5044072;28;20254;-74
2022/04/28 10:52:26;;;;;;;12.53;7.77;;;;;;;18.48;40.06;103016.47;5048689;28;20606;-73
2022/04/28 10:55:00;;;;;;;11.63;8.43;;;;;;;17.56;41.36;103002.94;5048529;28;20194;-73
2022/04/28 10:57:36;;;;;;;13.43;8.23;;;;;;;18.22;40.36;103013.25;5047992;28;20189;-74
2022/04/28 11:00:04;;;;;;;12.67;7.63;;;;;;;18.44;40.63;103002.53;5050995;28;20288;-74
2022/04/28 11:02:34;;;;;;;11.30;7.20;;;;;;;19.26;39.66;102998.19;5049007;28;20621;-74
2022/04/28 11:05:03;;;;;;;11.50;7.40;;;;;;;19.82;39.04;103001.78;5048443;28;20189;-74
2022/04/28 11:07:31;;;;;;;12.87;7.20;;;;;;;19.94;38.01;102995.03;5029391;28;20217;-74
2022/04/28 11:10:02;;;;;;;11.50;7.90;;;;;;;19.92;37.40;102993.28;5028696;28;20209;-74
2022/04/28 11:12:37;;;;;;;11.43;6.67;;;;;;;20.26;37.33;102982.56;5011159;28;20218;-74
2022/04/28 11:15:08;;;;;;;15.07;7.53;;;;;;;20.32;37.42;102986.09;5031978;28;20194;-74
2022/04/28 11:17:38;;;;;;;14.23;7.83;;;;;;;20.32;37.73;102983.50;5040516;28;20295;-73
2022/04/28 11:20:12;;;;;;;11.93;8.20;;;;;;;20.45;38.10;102988.03;5032989;28;20225;-74
2022/04/28 11:22:42;;;;;;;12.07;7.47;;;;;;;19.94;37.22;102982.03;5032081;28;20709;-74
2022/04/28 11:25:12;;;;;;;11.37;7.43;;;;;;;19.84;39.46;102984.47;5032572;28;20187;-74
2022/04/28 11:27:41;;;;;;;16.73;7.27;;;;;;;20.40;37.25;102975.81;5030993;28;20652;-74
2022/04/28 11:30:14;;;;;;;14.63;6.43;;;;;;;20.86;36.43;102968.56;5031391;28;20182;-74
2022/04/28 11:32:57;;;;;;;10.77;6.50;;;;;;;20.84;36.36;102972.91;5031933;28;20957;-74
2022/04/28 11:35:29;;;;;;;9.73;7.50;;;;;;;21.21;38.01;102969.88;5045932;28;20197;-74
2022/04/28 11:37:55;;;;;;;9.93;7.07;;;;;;;20.96;35.94;102969.59;5052549;28;20186;-74
2022/04/28 11:40:22;;;;;;;11.77;7.07;;;;;;;20.98;36.20;102966.16;5052061;28;20208;-74
2022/04/28 11:42:56;;;;;;;10.87;7.87;;;;;;;20.40;36.08;102981.88;5052474;28;20248;-74
2022/04/28 11:45:21;;;;;;;12.33;8.40;;;;;;;19.47;37.74;102977.78;5052135;28;20247;-74
2022/04/28 11:47:46;;;;;;;12.40;7.97;;;;;;;20.32;38.16;102974.84;5051033;28;20194;-74
2022/04/28 11:50:20;;;;;;;10.07;6.90;;;;;;;20.70;37.25;102974.47;5050459;28;20200;-74
2022/04/28 11:52:57;;;;;;;11.47;8.10;;;;;;;20.59;37.55;102980.41;5034149;28;20276;-74
2022/04/28 11:55:25;;;;;;;13.70;7.77;;;;;;;21.22;36.34;102963.78;5031877;28;20210;-74
2022/04/28 11:57:50;;;;;;;10.33;7.53;;;;;;;20.90;37.03;102967.78;5031038;28;20666;-74
2022/04/28 12:00:16;;;;;;;10.30;7.90;;;;;;;20.53;37.85;102968.19;5032196;28;20214;-74
2022/04/28 12:02:43;;;;;;;11.90;7.50;;;;;;;20.69;36.71;102972.72;5031469;28;20206;-74
2022/04/28 12:05:22;;;;;;;13.30;6.73;;;;;;;21.14;36.45;102981.09;5030800;28;20177;-74
2022/04/28 12:07:51;;;;;;;9.90;7.37;;;;;;;19.79;38.38;102976.59;5031425;28;20194;-74
2022/04/28 12:16:07;;;;;;;11.80;8.33;;;;;;;20.65;37.01;102963.13;5051838;28;20178;-73